West St. Catharines

*Note: All times are displayed in the local standard time of the station location.
**Rain - Equipment is designed to accurately record liquid precipitation; under conditions when precipitation is not in liquid form, the data displayed may not properly reflect rainfall values.

Date Max Temp
(°C)
Min Temp
(°C)
Avg Temp
(°C)
Rain (mm) Avg RH (%) Solar Rad (kJ/m2)
Mon, Apr 23, 2018 19.8 -0.5 8.1 0.0 75.2 20324.1
Sun, Apr 22, 2018 16.2 -2.0 8.1 0.0 61.5 20625.8
Sat, Apr 21, 2018 14.2 -3.0 5.8 0.0 69.0 18737.3
Fri, Apr 20, 2018 8.4 -0.9 2.9 0.0 77.9 19354.9
Thu, Apr 19, 2018 4.6 0.7 2.3 0.0 84.1 9469.9
Wed, Apr 18, 2018 4.4 0.8 2.3 0.0 93.9 7343.5
Tue, Apr 17, 2018 2.2 -1.0 0.8 0.4 90.9 8989.5
DateTime Avg Temp (°C) Rain (mm) RH (%) Solar Rad (kJ/m2)
Tue, Apr 24, 2018 18:00 12.9 0.6 98.3 241.1
Tue, Apr 24, 2018 17:00 14.3 0.0 84.5 375.0
Tue, Apr 24, 2018 16:00 15.9 0.0 69.8 456.4
Tue, Apr 24, 2018 15:00 17.3 0.0 58.3 594.2
Tue, Apr 24, 2018 14:00 18.2 0.0 55.5 1259.6
Tue, Apr 24, 2018 13:00 18.0 0.0 55.3 1793.5
Tue, Apr 24, 2018 12:00 16.7 0.0 58.5 1566.9
Tue, Apr 24, 2018 11:00 14.6 0.0 71.0 1014.7
Tue, Apr 24, 2018 10:00 14.0 0.0 77.0 883.2
Tue, Apr 24, 2018 09:00 13.9 0.0 75.0 526.7
Tue, Apr 24, 2018 08:00 13.5 0.0 72.5 261.4
Tue, Apr 24, 2018 07:00 12.3 0.0 77.5 34.2
Tue, Apr 24, 2018 06:00 12.4 0.0 76.5 0.8
Tue, Apr 24, 2018 05:00 12.3 0.0 75.8 1.2
Tue, Apr 24, 2018 04:00 12.1 0.0 75.3 0.8
Tue, Apr 24, 2018 03:00 5.2 0.0 94.5 1.2
Tue, Apr 24, 2018 02:00 4.5 0.0 96.8 0.4
Tue, Apr 24, 2018 01:00 4.4 0.0 95.8 0.8
Tue, Apr 24, 2018 00:00 4.6 0.0 95.5 0.8
Mon, Apr 23, 2018 23:00 5.1 0.0 90.0 0.4
Mon, Apr 23, 2018 22:00 5.3 0.0 91.0 0.4
Mon, Apr 23, 2018 21:00 6.0 0.0 88.3 2.2
Mon, Apr 23, 2018 20:00 7.3 0.0 82.8 135.8
Mon, Apr 23, 2018 19:00 9.2 0.0 76.3 477.6
Mon, Apr 23, 2018 18:00 11.3 0.0 70.0 1250.9
Mon, Apr 23, 2018 17:00 14.2 0.0 65.8 1816.3
Mon, Apr 23, 2018 16:00 19.3 0.0 43.3 2232.7
Mon, Apr 23, 2018 15:00 18.8 0.0 40.0 2496.5
Mon, Apr 23, 2018 14:00 16.3 0.0 56.5 2584.0
Mon, Apr 23, 2018 13:00 15.2 0.0 62.0 2497.0
Mon, Apr 23, 2018 12:00 14.3 0.0 61.8 2253.9
Mon, Apr 23, 2018 11:00 13.8 0.0 63.8 1877.1
Mon, Apr 23, 2018 10:00 10.4 0.0 68.3 1401.1
Mon, Apr 23, 2018 09:00 6.9 0.0 79.3 891.2
Mon, Apr 23, 2018 08:00 3.2 0.0 81.5 364.1
Mon, Apr 23, 2018 07:00 -0.3 0.0 92.0 38.9
Mon, Apr 23, 2018 06:00 0.0 0.0 91.8 0.4
Mon, Apr 23, 2018 05:00 0.9 0.0 89.0 0.8
Mon, Apr 23, 2018 04:00 3.1 0.0 75.5 0.4
Mon, Apr 23, 2018 03:00 2.3 0.0 81.3 0.8
Mon, Apr 23, 2018 02:00 2.9 0.0 81.8 0.4
Mon, Apr 23, 2018 01:00 3.6 0.0 78.5 0.4
Mon, Apr 23, 2018 00:00 6.4 0.0 65.5 0.4
Sun, Apr 22, 2018 23:00 6.6 0.0 61.5 0.0
Sun, Apr 22, 2018 22:00 7.9 0.0 62.5 0.4
Sun, Apr 22, 2018 21:00 11.7 0.0 39.8 4.0
Sun, Apr 22, 2018 20:00 14.5 0.0 32.5 183.8
Sun, Apr 22, 2018 19:00 15.7 0.0 29.5 553.6


asterix Register now to access more data! asterix